createdAt,value
2018-12-24T00:00:46.552Z,5.50
2018-12-24T00:01:46.523Z,5.80
2018-12-24T00:02:46.503Z,7.00
2018-12-24T00:03:46.481Z,5.60
2018-12-24T00:04:46.454Z,6.70
2018-12-24T00:05:46.439Z,7.50
2018-12-24T00:06:46.418Z,6.90
2018-12-24T00:07:46.395Z,6.10
2018-12-24T00:08:46.373Z,7.40
2018-12-24T00:09:46.347Z,7.40
2018-12-24T00:10:46.329Z,6.10
2018-12-24T00:11:46.304Z,6.90
2018-12-24T00:12:46.283Z,6.30
2018-12-24T00:13:46.268Z,4.60
2018-12-24T00:14:46.247Z,4.50
2018-12-24T00:15:46.233Z,4.00
2018-12-24T00:16:46.201Z,3.70
2018-12-24T00:17:46.176Z,3.70
2018-12-24T00:18:46.153Z,3.60
2018-12-24T00:19:46.134Z,3.90
2018-12-24T00:20:46.112Z,3.30
2018-12-24T00:21:46.090Z,3.30
2018-12-24T00:22:46.064Z,3.40
2018-12-24T00:23:46.051Z,3.90
2018-12-24T00:24:46.025Z,4.30
2018-12-24T00:25:46.000Z,4.20
2018-12-24T00:26:45.977Z,4.10
2018-12-24T00:27:45.963Z,4.90
2018-12-24T00:28:45.944Z,5.30
2018-12-24T00:29:45.919Z,5.40
2018-12-24T00:30:45.887Z,5.90
2018-12-24T00:31:45.875Z,8.20
2018-12-24T00:32:45.852Z,9.00
2018-12-24T00:33:45.823Z,9.70
2018-12-24T00:34:45.807Z,10.10
2018-12-24T00:35:45.779Z,11.30
2018-12-24T00:36:45.756Z,12.80
2018-12-24T00:37:45.734Z,10.40
2018-12-24T00:38:45.724Z,9.70
2018-12-24T00:39:45.695Z,10.00
2018-12-24T00:40:45.673Z,9.30
2018-12-24T00:41:45.650Z,9.30
2018-12-24T00:42:45.630Z,9.30
2018-12-24T00:43:45.606Z,8.00
2018-12-24T00:44:45.587Z,9.40
2018-12-24T00:45:45.564Z,9.90
2018-12-24T00:46:45.544Z,8.60
2018-12-24T00:47:45.521Z,8.20
2018-12-24T00:48:45.495Z,7.70
2018-12-24T00:49:45.475Z,9.50
2018-12-24T00:50:45.452Z,11.70
2018-12-24T00:51:45.427Z,8.50
2018-12-24T00:52:45.408Z,8.60
2018-12-24T00:53:45.383Z,8.30
2018-12-24T00:54:45.363Z,8.60
2018-12-24T00:55:45.346Z,9.10
2018-12-24T00:56:45.318Z,10.20
2018-12-24T00:57:45.301Z,7.20
2018-12-24T00:58:45.275Z,7.30
2018-12-24T00:59:45.253Z,8.80
2018-12-24T01:00:45.232Z,8.20
2018-12-24T01:01:45.213Z,7.50
2018-12-24T01:02:45.182Z,7.70
2018-12-24T01:03:45.168Z,6.50
2018-12-24T01:04:45.142Z,6.30
2018-12-24T01:05:45.126Z,6.90
2018-12-24T01:06:45.097Z,7.30
2018-12-24T01:07:45.079Z,7.40
2018-12-24T01:08:45.053Z,9.20
2018-12-24T01:09:45.033Z,6.90
2018-12-24T01:10:45.008Z,9.10
2018-12-24T01:11:45.078Z,6.90
2018-12-24T01:12:44.964Z,8.20
2018-12-24T01:13:44.942Z,7.40
2018-12-24T01:14:44.918Z,7.90
2018-12-24T01:15:44.897Z,8.50
2018-12-24T01:16:44.875Z,6.50
2018-12-24T01:17:44.856Z,6.70
2018-12-24T01:18:44.830Z,6.70
2018-12-24T01:19:44.811Z,6.30
2018-12-24T01:20:44.787Z,5.80
2018-12-24T01:21:44.764Z,5.50
2018-12-24T01:22:44.742Z,5.20
2018-12-24T01:23:44.781Z,6.30
2018-12-24T01:24:44.699Z,6.30
2018-12-24T01:25:44.672Z,5.40
2018-12-24T01:26:44.667Z,6.20
2018-12-24T01:27:44.626Z,5.40
2018-12-24T01:28:44.613Z,6.70
2018-12-24T01:29:44.584Z,5.70
2018-12-24T01:30:44.564Z,5.20
2018-12-24T01:31:44.545Z,6.50
2018-12-24T01:32:44.516Z,6.90
2018-12-24T01:33:44.496Z,5.90
2018-12-24T01:34:44.472Z,5.50
2018-12-24T01:35:44.458Z,5.80
2018-12-24T01:36:44.430Z,5.20
2018-12-24T01:37:44.406Z,5.40
2018-12-24T01:38:44.389Z,6.40
2018-12-24T01:39:44.359Z,5.40
2018-12-24T01:40:44.350Z,5.30
2018-12-24T01:41:44.316Z,5.10
2018-12-24T01:42:44.299Z,5.50
2018-12-24T01:43:44.271Z,5.60
2018-12-24T01:44:44.253Z,5.70
2018-12-24T01:45:44.229Z,3.70
2018-12-24T01:46:44.206Z,3.80
2018-12-24T01:47:44.181Z,5.40
2018-12-24T01:48:44.163Z,4.00
2018-12-24T01:49:44.137Z,3.80
2018-12-24T01:50:44.115Z,4.30
2018-12-24T01:51:44.098Z,4.30
2018-12-24T01:52:44.074Z,3.60
2018-12-24T01:53:44.049Z,3.70
2018-12-24T01:54:44.028Z,4.40
2018-12-24T01:55:44.009Z,4.60
2018-12-24T01:56:43.984Z,3.80
2018-12-24T01:57:43.959Z,4.80
2018-12-24T01:58:43.937Z,4.90
2018-12-24T01:59:43.917Z,5.10
2018-12-24T02:00:43.892Z,5.20
2018-12-24T02:01:43.869Z,5.10
2018-12-24T02:02:43.845Z,5.00
2018-12-24T02:03:43.829Z,6.10
2018-12-24T02:04:43.805Z,6.20
2018-12-24T02:05:43.786Z,5.20
2018-12-24T02:06:43.756Z,5.30
2018-12-24T02:07:43.745Z,5.40
2018-12-24T02:08:43.713Z,5.10
2018-12-24T02:09:43.688Z,6.10
2018-12-24T02:10:43.665Z,5.40
2018-12-24T02:11:43.645Z,5.50
2018-12-24T02:12:43.622Z,5.70
2018-12-24T02:13:43.606Z,6.00
2018-12-24T02:14:43.577Z,5.10
2018-12-24T02:15:43.557Z,5.90
2018-12-24T02:16:43.529Z,6.20
2018-12-24T02:17:43.510Z,5.20
2018-12-24T02:18:43.489Z,5.00
2018-12-24T02:19:43.459Z,5.80
2018-12-24T02:20:43.447Z,6.10
2018-12-24T02:21:43.417Z,7.60
2018-12-24T02:22:43.400Z,5.90
2018-12-24T02:23:43.373Z,6.70
2018-12-24T02:24:43.353Z,8.00
2018-12-24T02:25:43.325Z,10.90
2018-12-24T02:26:43.315Z,8.90
2018-12-24T02:27:43.283Z,8.90
2018-12-24T02:28:43.271Z,10.60
2018-12-24T02:29:43.238Z,13.80
2018-12-24T02:30:43.215Z,15.20
2018-12-24T02:31:43.190Z,16.80
2018-12-24T02:32:43.176Z,19.60
2018-12-24T02:33:43.153Z,19.40
2018-12-24T02:34:43.128Z,21.10
2018-12-24T02:35:43.106Z,21.00
2018-12-24T02:36:43.087Z,21.80
2018-12-24T02:37:43.061Z,24.70
2018-12-24T02:38:43.177Z,23.70
2018-12-24T02:39:43.013Z,24.30
2018-12-24T02:40:42.997Z,24.40
2018-12-24T02:41:42.970Z,25.80
2018-12-24T02:42:52.084Z,23.50
2018-12-24T02:43:42.954Z,22.80
2018-12-24T02:44:42.898Z,23.60
2018-12-24T02:45:42.879Z,24.00
2018-12-24T02:46:42.857Z,24.30
2018-12-24T02:47:42.833Z,22.90
2018-12-24T02:48:42.813Z,24.10
2018-12-24T02:49:42.787Z,22.70
2018-12-24T02:50:42.770Z,23.30
2018-12-24T02:51:42.743Z,17.80
2018-12-24T02:52:42.720Z,17.70
2018-12-24T02:53:42.697Z,16.20
2018-12-24T02:54:42.676Z,15.40
2018-12-24T02:55:42.656Z,16.20
2018-12-24T02:56:42.632Z,16.30
2018-12-24T02:57:42.612Z,16.50
2018-12-24T02:58:42.587Z,16.00
2018-12-24T02:59:42.560Z,19.40
2018-12-24T03:00:42.535Z,17.00
2018-12-24T03:01:42.517Z,17.40
2018-12-24T03:02:42.492Z,20.30
2018-12-24T03:03:42.469Z,19.00
2018-12-24T03:04:42.451Z,18.40
2018-12-24T03:05:42.437Z,21.30
2018-12-24T03:06:42.407Z,21.10
2018-12-24T03:07:42.384Z,20.00
2018-12-24T03:08:42.358Z,20.20
2018-12-24T03:09:42.339Z,21.10
2018-12-24T03:10:42.312Z,20.90
2018-12-24T03:11:42.293Z,19.80
2018-12-24T03:12:42.274Z,21.10
2018-12-24T03:13:42.245Z,20.50
2018-12-24T03:14:42.221Z,21.30
2018-12-24T03:15:42.198Z,20.70
2018-12-24T03:16:42.179Z,20.80
2018-12-24T03:17:42.155Z,21.10
2018-12-24T03:18:42.132Z,20.80
2018-12-24T03:19:42.109Z,21.40
2018-12-24T03:20:42.143Z,21.90
2018-12-24T03:21:42.063Z,19.80
2018-12-24T03:22:42.043Z,21.00
2018-12-24T03:23:42.022Z,19.80
2018-12-24T03:24:42.002Z,18.30
2018-12-24T03:25:41.974Z,20.60
2018-12-24T03:26:41.948Z,22.10
2018-12-24T03:27:41.941Z,20.70
2018-12-24T03:28:41.906Z,20.20
2018-12-24T03:29:41.943Z,21.00
2018-12-24T03:30:41.878Z,22.20
2018-12-24T03:31:41.847Z,22.60
2018-12-24T03:32:41.828Z,21.40
2018-12-24T03:33:41.791Z,24.70
2018-12-24T03:34:41.771Z,23.20
2018-12-24T03:35:41.748Z,22.50
2018-12-24T03:36:41.723Z,21.60
2018-12-24T03:37:41.701Z,21.10
2018-12-24T03:38:41.679Z,19.10
2018-12-24T03:39:41.661Z,18.60
2018-12-24T03:40:41.736Z,18.40
2018-12-24T03:41:41.618Z,18.40
2018-12-24T03:42:41.587Z,15.40
2018-12-24T03:43:41.564Z,16.80
2018-12-24T03:44:41.544Z,15.90
2018-12-24T03:45:41.520Z,15.90
2018-12-24T03:46:41.504Z,18.80
2018-12-24T03:47:41.473Z,17.30
2018-12-24T03:48:41.456Z,17.20
2018-12-24T03:49:41.432Z,18.00
2018-12-24T03:50:41.407Z,17.70
2018-12-24T03:51:41.388Z,17.90
2018-12-24T03:52:41.358Z,15.60
2018-12-24T03:53:41.340Z,15.00
2018-12-24T03:54:41.320Z,17.00
2018-12-24T03:55:41.292Z,15.50
2018-12-24T03:56:41.271Z,15.60
2018-12-24T03:57:41.248Z,15.20
2018-12-24T03:58:41.228Z,15.90
2018-12-24T03:59:41.210Z,13.90
2018-12-24T04:00:41.189Z,11.70
2018-12-24T04:01:41.153Z,10.80
2018-12-24T04:02:41.138Z,10.40
2018-12-24T04:03:41.114Z,9.90
2018-12-24T04:04:41.090Z,8.70
2018-12-24T04:05:41.069Z,9.40
2018-12-24T04:06:41.042Z,7.90
2018-12-24T04:07:41.020Z,8.20
2018-12-24T04:08:40.998Z,8.90
2018-12-24T04:09:40.976Z,8.60
2018-12-24T04:10:40.953Z,6.90
2018-12-24T04:11:40.933Z,7.70
2018-12-24T04:12:40.904Z,6.40
2018-12-24T04:13:40.882Z,4.30
2018-12-24T04:14:40.866Z,4.10
2018-12-24T04:15:40.839Z,4.20
2018-12-24T04:16:40.817Z,4.00
2018-12-24T04:17:40.793Z,4.30
2018-12-24T04:18:40.774Z,3.80
2018-12-24T04:19:40.753Z,4.00
2018-12-24T04:20:40.721Z,3.80
2018-12-24T04:21:40.703Z,3.30
2018-12-24T04:22:40.675Z,3.80
2018-12-24T04:23:40.656Z,3.20
2018-12-24T04:24:40.631Z,3.50
2018-12-24T04:25:40.611Z,3.20
2018-12-24T04:26:40.602Z,2.70
2018-12-24T04:27:41.907Z,2.30
2018-12-24T04:28:40.543Z,2.80
2018-12-24T04:29:40.524Z,3.60
2018-12-24T04:30:40.497Z,2.80
2018-12-24T04:31:40.473Z,3.20
2018-12-24T04:32:40.449Z,2.90
2018-12-24T04:33:40.425Z,2.90
2018-12-24T04:34:40.401Z,3.10
2018-12-24T04:35:40.385Z,2.70
2018-12-24T04:36:40.362Z,2.40
2018-12-24T04:37:40.337Z,2.20
2018-12-24T04:38:40.313Z,2.30
2018-12-24T04:39:40.293Z,2.30
2018-12-24T04:40:40.268Z,2.30
2018-12-24T04:41:40.247Z,1.90
2018-12-24T04:42:40.219Z,2.00
2018-12-24T04:43:40.199Z,1.80
2018-12-24T04:44:40.175Z,2.10
2018-12-24T04:45:40.157Z,2.00
2018-12-24T04:46:40.131Z,2.10
2018-12-24T04:47:40.114Z,2.00
2018-12-24T04:48:40.085Z,2.20
2018-12-24T04:49:40.063Z,2.20
2018-12-24T04:50:40.044Z,2.40
2018-12-24T04:51:40.019Z,2.00
2018-12-24T04:52:39.991Z,2.30
2018-12-24T04:53:39.967Z,2.20
2018-12-24T04:54:39.943Z,2.30
2018-12-24T04:55:39.943Z,2.20
2018-12-24T04:56:39.898Z,2.60
2018-12-24T04:57:39.890Z,2.20
2018-12-24T04:58:39.853Z,2.70
2018-12-24T04:59:39.834Z,2.30
2018-12-24T05:00:39.814Z,2.80
2018-12-24T05:01:39.783Z,2.70
2018-12-24T05:02:39.759Z,3.10
2018-12-24T05:03:39.742Z,2.70
2018-12-24T05:04:39.723Z,2.50
2018-12-24T05:05:39.689Z,3.00
2018-12-24T05:06:39.669Z,2.70
2018-12-24T05:07:39.644Z,2.40
2018-12-24T05:08:39.627Z,2.40
2018-12-24T05:09:39.601Z,2.30
2018-12-24T05:10:39.579Z,2.60
2018-12-24T05:11:39.553Z,2.70
2018-12-24T05:12:39.531Z,1.90
2018-12-24T05:13:40.998Z,2.20
2018-12-24T05:14:39.484Z,2.30
2018-12-24T05:15:39.463Z,2.10
2018-12-24T05:16:39.440Z,1.80
2018-12-24T05:17:39.414Z,1.80
2018-12-24T05:18:39.393Z,1.80
2018-12-24T05:19:39.373Z,1.80
2018-12-24T05:20:39.349Z,1.90
2018-12-24T05:21:39.327Z,1.70
2018-12-24T05:22:39.301Z,1.50
2018-12-24T05:23:39.275Z,1.60
2018-12-24T05:24:39.257Z,1.70
2018-12-24T05:25:39.236Z,1.60
2018-12-24T05:26:39.207Z,1.70
2018-12-24T05:27:39.184Z,1.50
2018-12-24T05:28:39.162Z,1.90
2018-12-24T05:29:39.139Z,1.60
2018-12-24T05:30:39.113Z,1.30
2018-12-24T05:31:39.096Z,1.70
2018-12-24T05:32:39.069Z,2.00
2018-12-24T05:33:39.047Z,1.70
2018-12-24T05:34:39.023Z,1.90
2018-12-24T05:35:39.004Z,1.70
2018-12-24T05:36:38.977Z,1.60
2018-12-24T05:37:38.956Z,1.90
2018-12-24T05:38:38.932Z,1.80
2018-12-24T05:39:38.911Z,1.60
2018-12-24T05:40:38.885Z,1.60
2018-12-24T05:41:38.865Z,1.90
2018-12-24T05:42:38.845Z,1.50
2018-12-24T05:43:38.819Z,1.80
2018-12-24T05:44:38.793Z,2.20
2018-12-24T05:45:38.770Z,2.10
2018-12-24T05:46:38.747Z,2.20
2018-12-24T05:47:38.727Z,1.70
2018-12-24T05:48:38.705Z,1.80
2018-12-24T05:49:38.681Z,1.80
2018-12-24T05:50:38.653Z,1.70
2018-12-24T05:51:38.635Z,1.90
2018-12-24T05:52:38.612Z,2.10
2018-12-24T05:53:38.584Z,2.10
2018-12-24T05:54:38.566Z,1.80
2018-12-24T05:55:38.539Z,1.90
2018-12-24T05:56:38.518Z,2.10
2018-12-24T05:57:38.494Z,2.20
2018-12-24T05:58:38.475Z,1.90
2018-12-24T05:59:38.445Z,1.80
2018-12-24T06:00:38.424Z,1.80
2018-12-24T06:01:38.401Z,1.90
2018-12-24T06:02:38.377Z,1.70
2018-12-24T06:03:38.353Z,1.90
2018-12-24T06:04:38.339Z,1.60
2018-12-24T06:05:38.307Z,1.90
2018-12-24T06:06:38.286Z,1.70
2018-12-24T06:07:38.262Z,2.30
2018-12-24T06:08:38.244Z,2.00
2018-12-24T06:09:38.216Z,1.80
2018-12-24T06:10:38.197Z,2.00
2018-12-24T06:11:38.167Z,2.20
2018-12-24T06:12:38.148Z,1.70
2018-12-24T06:13:38.123Z,1.90
2018-12-24T06:14:38.115Z,1.90
2018-12-24T06:15:38.077Z,1.40
2018-12-24T06:16:38.053Z,1.50
2018-12-24T06:17:38.032Z,1.40
2018-12-24T06:18:38.007Z,1.20
2018-12-24T06:19:37.983Z,1.60
2018-12-24T06:20:38.002Z,1.60
2018-12-24T06:21:37.941Z,1.80
2018-12-24T06:22:37.920Z,1.70
2018-12-24T06:23:37.896Z,1.80
2018-12-24T06:24:37.869Z,1.90
2018-12-24T06:25:37.854Z,1.70
2018-12-24T06:26:37.824Z,1.80
2018-12-24T06:27:37.801Z,1.70
2018-12-24T06:28:37.779Z,1.80
2018-12-24T06:29:37.753Z,1.70
2018-12-24T06:30:37.733Z,2.00
2018-12-24T06:31:37.710Z,1.70
2018-12-24T06:32:37.681Z,1.90
2018-12-24T06:33:37.675Z,1.60
2018-12-24T06:34:37.637Z,1.80
2018-12-24T06:35:37.613Z,2.00
2018-12-24T06:36:37.588Z,2.00
2018-12-24T06:37:37.575Z,2.20
2018-12-24T06:38:37.539Z,2.40
2018-12-24T06:39:37.519Z,2.40
2018-12-24T06:40:37.501Z,1.90
2018-12-24T06:41:37.475Z,2.10
2018-12-24T06:42:37.447Z,2.50
2018-12-24T06:43:37.427Z,2.70
2018-12-24T06:44:37.401Z,2.60
2018-12-24T06:45:37.379Z,2.60
2018-12-24T06:46:37.357Z,1.90
2018-12-24T06:47:37.333Z,1.80
2018-12-24T06:48:37.309Z,1.90
2018-12-24T06:49:37.287Z,2.00
2018-12-24T06:50:37.263Z,2.00
2018-12-24T06:51:37.289Z,2.00
2018-12-24T06:52:37.217Z,2.20
2018-12-24T06:53:37.197Z,2.30
2018-12-24T06:54:37.172Z,2.30
2018-12-24T06:55:37.145Z,1.90
2018-12-24T06:56:37.125Z,1.90
2018-12-24T06:57:37.100Z,2.80
2018-12-24T06:58:37.075Z,2.00
2018-12-24T06:59:37.051Z,2.10
2018-12-24T07:00:37.036Z,1.70
2018-12-24T07:01:37.007Z,2.10
2018-12-24T07:02:36.985Z,1.60
2018-12-24T07:03:36.960Z,1.90
2018-12-24T07:04:36.940Z,1.60
2018-12-24T07:05:36.920Z,1.30
2018-12-24T07:06:36.895Z,1.60
2018-12-24T07:07:36.864Z,1.70
2018-12-24T07:08:36.842Z,1.50
2018-12-24T07:09:36.821Z,1.40
2018-12-24T07:10:36.803Z,1.30
2018-12-24T07:11:36.776Z,1.40
2018-12-24T07:12:36.754Z,1.30
2018-12-24T07:13:36.731Z,1.30
2018-12-24T07:14:36.706Z,1.40
2018-12-24T07:15:36.682Z,1.20
2018-12-24T07:16:36.661Z,1.20
2018-12-24T07:17:36.633Z,1.20
2018-12-24T07:18:36.613Z,1.40
2018-12-24T07:19:36.588Z,1.20
2018-12-24T07:20:36.571Z,1.00
2018-12-24T07:21:36.541Z,1.10
2018-12-24T07:22:36.524Z,1.10
2018-12-24T07:23:36.498Z,1.30
2018-12-24T07:24:36.472Z,1.20
2018-12-24T07:25:36.448Z,0.80
2018-12-24T07:26:36.425Z,0.90
2018-12-24T07:27:36.401Z,0.90
2018-12-24T07:28:36.383Z,1.20
2018-12-24T07:29:36.373Z,1.00
2018-12-24T07:30:36.336Z,1.00
2018-12-24T07:31:36.310Z,1.00
2018-12-24T07:32:36.287Z,1.00
2018-12-24T07:33:36.266Z,1.10
2018-12-24T07:34:36.238Z,1.10
2018-12-24T07:35:36.217Z,0.90
2018-12-24T07:36:36.190Z,0.90
2018-12-24T07:37:36.168Z,1.10
2018-12-24T07:38:36.147Z,1.40
2018-12-24T07:39:36.122Z,0.80
2018-12-24T07:40:36.097Z,0.80
2018-12-24T07:41:36.076Z,0.70
2018-12-24T07:42:36.052Z,0.80
2018-12-24T07:43:36.045Z,0.70
2018-12-24T07:44:36.008Z,0.70
2018-12-24T07:45:35.982Z,0.70
2018-12-24T07:46:35.962Z,0.80
2018-12-24T07:47:35.939Z,0.60
2018-12-24T07:48:35.912Z,0.70
2018-12-24T07:49:35.884Z,0.60
2018-12-24T07:50:35.867Z,0.60
2018-12-24T07:51:35.846Z,0.70
2018-12-24T07:52:35.829Z,0.60
2018-12-24T07:53:35.797Z,0.50
2018-12-24T07:54:35.776Z,0.60
2018-12-24T07:55:35.747Z,0.70
2018-12-24T07:56:35.726Z,0.60
2018-12-24T07:57:35.699Z,0.70
2018-12-24T07:58:35.680Z,0.70
2018-12-24T07:59:35.654Z,0.60
2018-12-24T08:00:35.634Z,0.70
2018-12-24T08:01:35.606Z,0.50
2018-12-24T08:02:35.586Z,0.60
2018-12-24T08:03:35.561Z,0.80
2018-12-24T08:04:35.538Z,0.60
2018-12-24T08:05:35.514Z,0.90
2018-12-24T08:06:35.492Z,0.60
2018-12-24T08:07:35.468Z,0.80
2018-12-24T08:08:35.443Z,0.70
2018-12-24T08:09:35.420Z,9.20
2018-12-24T08:10:35.406Z,1.00
2018-12-24T08:11:35.371Z,0.80
2018-12-24T08:12:35.350Z,0.80
2018-12-24T08:13:35.329Z,0.70
2018-12-24T08:14:35.304Z,0.80
2018-12-24T08:15:35.282Z,0.90
2018-12-24T08:16:35.256Z,0.90
2018-12-24T08:17:35.240Z,0.80
2018-12-24T08:18:35.211Z,1.10
2018-12-24T08:19:35.185Z,1.10
2018-12-24T08:20:35.165Z,1.10
2018-12-24T08:21:35.138Z,0.90
2018-12-24T08:22:35.121Z,1.20
2018-12-24T08:23:35.093Z,1.10
2018-12-24T08:24:35.068Z,1.20
2018-12-24T08:25:35.045Z,1.20
2018-12-24T08:26:35.022Z,1.40
2018-12-24T08:27:34.996Z,1.20
2018-12-24T08:28:34.977Z,1.50
2018-12-24T08:29:34.953Z,1.60
2018-12-24T08:30:34.929Z,1.60
2018-12-24T08:31:34.907Z,1.60
2018-12-24T08:32:34.885Z,1.50
2018-12-24T08:33:34.857Z,1.40
2018-12-24T08:34:34.838Z,1.60
2018-12-24T08:35:34.813Z,2.10
2018-12-24T08:36:34.789Z,2.60
2018-12-24T08:37:34.767Z,2.20
2018-12-24T08:38:34.743Z,2.10
2018-12-24T08:39:34.720Z,1.50
2018-12-24T08:40:34.698Z,1.50
2018-12-24T08:41:34.671Z,1.50
2018-12-24T08:42:34.651Z,1.20
2018-12-24T08:43:34.623Z,1.30
2018-12-24T08:44:41.652Z,1.50
2018-12-24T08:45:34.583Z,1.30
2018-12-24T08:46:34.555Z,1.10
2018-12-24T08:47:34.533Z,1.50
2018-12-24T08:48:34.510Z,1.60
2018-12-24T08:49:34.485Z,1.30
2018-12-24T08:50:34.462Z,1.50
2018-12-24T08:51:34.441Z,1.30
2018-12-24T08:52:34.416Z,1.90
2018-12-24T08:53:34.391Z,1.70
2018-12-24T08:54:34.383Z,1.60
2018-12-24T08:55:34.357Z,1.80
2018-12-24T08:56:34.328Z,1.60
2018-12-24T08:57:34.301Z,1.50
2018-12-24T08:58:34.277Z,1.90
2018-12-24T08:59:34.249Z,2.40
2018-12-24T09:00:34.235Z,1.70
2018-12-24T09:01:34.203Z,2.30
2018-12-24T09:02:34.179Z,2.30
2018-12-24T09:03:34.158Z,2.20
2018-12-24T09:04:34.137Z,2.40
2018-12-24T09:05:34.114Z,2.30
2018-12-24T09:06:34.089Z,2.00
2018-12-24T09:07:34.071Z,2.00
2018-12-24T09:08:34.039Z,2.60
2018-12-24T09:09:34.017Z,2.60
2018-12-24T09:10:33.999Z,2.20
2018-12-24T09:11:33.969Z,2.10
2018-12-24T09:12:33.945Z,2.30
2018-12-24T09:13:33.922Z,2.40
2018-12-24T09:14:33.900Z,2.20
2018-12-24T09:15:33.877Z,2.40
2018-12-24T09:16:33.855Z,2.10
2018-12-24T09:17:35.128Z,2.30
2018-12-24T09:18:33.806Z,3.00
2018-12-24T09:19:33.783Z,2.40
2018-12-24T09:20:33.778Z,2.60
2018-12-24T09:21:33.734Z,1.90
2018-12-24T09:22:33.712Z,2.40
2018-12-24T09:23:33.692Z,2.20
2018-12-24T09:24:33.664Z,1.90
2018-12-24T09:25:33.641Z,1.90
2018-12-24T09:26:33.632Z,1.80
2018-12-24T09:27:33.603Z,1.30
2018-12-24T09:28:33.568Z,1.50
2018-12-24T09:29:33.546Z,1.20
2018-12-24T09:30:33.525Z,1.20
2018-12-24T09:31:33.501Z,1.40
2018-12-24T09:32:33.483Z,1.20
2018-12-24T09:33:33.454Z,1.20
2018-12-24T09:34:33.433Z,1.20
2018-12-24T09:35:33.412Z,1.20
2018-12-24T09:36:33.381Z,1.40
2018-12-24T09:37:33.359Z,1.50
2018-12-24T09:38:33.338Z,1.30
2018-12-24T09:39:33.313Z,1.20
2018-12-24T09:40:33.290Z,1.20
2018-12-24T09:41:33.270Z,1.10
2018-12-24T09:42:33.241Z,1.10
2018-12-24T09:43:33.222Z,1.20
2018-12-24T09:44:33.193Z,1.40
2018-12-24T09:45:33.172Z,1.30
2018-12-24T09:46:33.147Z,1.30
2018-12-24T09:47:33.125Z,1.00
2018-12-24T09:48:33.104Z,1.10
2018-12-24T09:49:33.079Z,1.30
2018-12-24T09:50:33.049Z,1.00
2018-12-24T09:51:33.042Z,1.40
2018-12-24T09:52:33.007Z,1.40
2018-12-24T09:53:32.982Z,1.10
2018-12-24T09:54:32.960Z,1.20
2018-12-24T09:55:32.937Z,1.10
2018-12-24T09:56:32.911Z,1.40
2018-12-24T09:57:32.889Z,1.60
2018-12-24T09:58:32.865Z,1.20
2018-12-24T09:59:32.839Z,1.20
2018-12-24T10:00:32.817Z,1.10
2018-12-24T10:01:32.792Z,1.20
2018-12-24T10:02:32.769Z,1.60
2018-12-24T10:03:32.752Z,1.20
2018-12-24T10:04:32.723Z,1.40
2018-12-24T10:05:32.699Z,1.30
2018-12-24T10:06:32.678Z,1.30
2018-12-24T10:07:32.662Z,1.00
2018-12-24T10:08:32.636Z,1.30
2018-12-24T10:09:32.607Z,1.10
2018-12-24T10:10:32.583Z,1.30
2018-12-24T10:11:32.556Z,1.10
2018-12-24T10:12:32.537Z,1.00
2018-12-24T10:13:32.511Z,1.20
2018-12-24T10:14:32.487Z,1.30
2018-12-24T10:15:32.473Z,1.30
2018-12-24T10:16:32.457Z,1.10
2018-12-24T10:17:32.415Z,1.50
2018-12-24T10:18:32.391Z,1.60
2018-12-24T10:19:32.371Z,1.50
2018-12-24T10:20:32.350Z,1.30
2018-12-24T10:21:32.347Z,1.50
2018-12-24T10:22:32.303Z,1.70
2018-12-24T10:23:32.279Z,1.50
2018-12-24T10:24:32.254Z,1.70
2018-12-24T10:25:32.232Z,2.00
2018-12-24T10:26:32.209Z,1.60
2018-12-24T10:27:32.182Z,1.50
2018-12-24T10:28:32.160Z,1.20
2018-12-24T10:29:32.139Z,1.50
2018-12-24T10:30:32.111Z,1.30
2018-12-24T10:31:32.095Z,1.40
2018-12-24T10:32:32.065Z,1.40
2018-12-24T10:33:32.043Z,1.40
2018-12-24T10:34:32.015Z,1.20
2018-12-24T10:35:31.995Z,1.40
2018-12-24T10:36:31.971Z,1.20
2018-12-24T10:37:31.948Z,1.40
2018-12-24T10:38:31.923Z,1.50
2018-12-24T10:39:31.903Z,1.30
2018-12-24T10:40:31.877Z,1.50
2018-12-24T10:41:31.863Z,1.70
2018-12-24T10:42:31.829Z,1.50
2018-12-24T10:43:31.808Z,1.60
2018-12-24T10:44:31.790Z,1.60
2018-12-24T10:45:31.759Z,1.40
2018-12-24T10:46:31.736Z,1.60
2018-12-24T10:47:31.709Z,1.70
2018-12-24T10:48:31.692Z,1.50
2018-12-24T10:49:31.668Z,1.80
2018-12-24T10:50:31.647Z,1.80
2018-12-24T10:51:31.632Z,1.70
2018-12-24T10:52:31.600Z,1.70
2018-12-24T10:53:31.570Z,1.50
2018-12-24T10:54:31.550Z,1.50
2018-12-24T10:55:31.526Z,1.70
2018-12-24T10:56:31.502Z,1.70
2018-12-24T10:57:31.481Z,1.90
2018-12-24T10:58:31.465Z,1.70
2018-12-24T10:59:31.440Z,1.60
2018-12-24T11:00:31.412Z,1.70
2018-12-24T11:01:31.389Z,2.00
2018-12-24T11:02:31.362Z,1.80
2018-12-24T11:03:31.339Z,1.50
2018-12-24T11:04:31.317Z,1.60
2018-12-24T11:05:31.290Z,1.90
2018-12-24T11:06:31.271Z,1.90
2018-12-24T11:07:31.251Z,1.50
2018-12-24T11:08:31.223Z,1.40
2018-12-24T11:09:31.201Z,1.40
2018-12-24T11:10:31.178Z,1.40
2018-12-24T11:11:31.155Z,1.60
2018-12-24T11:12:31.135Z,1.70
2018-12-24T11:13:31.108Z,1.60
2018-12-24T11:14:31.183Z,1.90
2018-12-24T11:15:31.058Z,2.00
2018-12-24T11:16:31.037Z,1.60
2018-12-24T11:17:31.014Z,1.90
2018-12-24T11:18:30.992Z,1.80
2018-12-24T11:19:30.969Z,1.90
2018-12-24T11:20:30.943Z,2.10
2018-12-24T11:21:30.921Z,1.90
2018-12-24T11:22:30.896Z,1.60
2018-12-24T11:23:30.870Z,2.30
2018-12-24T11:24:30.853Z,1.90
2018-12-24T11:25:30.828Z,1.60
2018-12-24T11:26:30.804Z,1.70
2018-12-24T11:27:30.787Z,2.00
2018-12-24T11:28:30.759Z,1.70
2018-12-24T11:29:30.729Z,1.70
2018-12-24T11:30:30.707Z,1.50
2018-12-24T11:31:30.692Z,1.40
2018-12-24T11:32:30.662Z,1.40
2018-12-24T11:33:30.642Z,1.30
2018-12-24T11:34:30.618Z,1.20
2018-12-24T11:35:30.613Z,1.40
2018-12-24T11:36:30.575Z,1.30
2018-12-24T11:37:30.547Z,1.50
2018-12-24T11:38:30.522Z,1.30
2018-12-24T11:39:30.500Z,1.40
2018-12-24T11:40:30.477Z,1.50
2018-12-24T11:41:30.460Z,1.50
2018-12-24T11:42:30.428Z,1.40
2018-12-24T11:43:30.407Z,1.40
2018-12-24T11:44:30.380Z,1.30
2018-12-24T11:45:34.050Z,1.40
2018-12-24T11:46:30.335Z,1.40
2018-12-24T11:47:30.309Z,1.30
2018-12-24T11:48:30.291Z,1.40
2018-12-24T11:49:30.268Z,1.60
2018-12-24T11:50:30.243Z,1.80
2018-12-24T11:51:30.219Z,1.30
2018-12-24T11:52:30.201Z,1.60
2018-12-24T11:53:30.170Z,1.50
2018-12-24T11:54:30.147Z,2.10
2018-12-24T11:55:30.125Z,1.60
2018-12-24T11:56:30.107Z,1.50
2018-12-24T11:57:30.085Z,1.60
2018-12-24T11:58:30.056Z,2.00
2018-12-24T11:59:30.031Z,2.00
2018-12-24T12:00:30.011Z,1.80
2018-12-24T12:01:29.985Z,1.70
2018-12-24T12:02:29.968Z,1.90
2018-12-24T12:03:29.941Z,1.90
2018-12-24T12:04:29.919Z,1.80
2018-12-24T12:05:29.890Z,2.20
2018-12-24T12:06:29.865Z,3.60
2018-12-24T12:07:29.842Z,2.60
2018-12-24T12:08:29.823Z,1.90
2018-12-24T12:09:29.800Z,2.00
2018-12-24T12:10:29.778Z,1.90
2018-12-24T12:11:29.751Z,3.10
2018-12-24T12:12:29.729Z,2.10
2018-12-24T12:13:29.709Z,2.10
2018-12-24T12:14:29.682Z,1.60
2018-12-24T12:15:29.659Z,2.90
2018-12-24T12:16:31.710Z,2.50
2018-12-24T12:17:29.615Z,1.70
2018-12-24T12:18:29.589Z,1.70
2018-12-24T12:19:29.569Z,2.50
2018-12-24T12:20:29.541Z,2.10
2018-12-24T12:21:29.517Z,3.40
2018-12-24T12:22:29.498Z,6.40
2018-12-24T12:23:29.469Z,4.70
2018-12-24T12:24:29.459Z,2.70
2018-12-24T12:25:29.422Z,1.90
2018-12-24T12:26:30.388Z,2.40
2018-12-24T12:27:29.377Z,1.80
2018-12-24T12:28:29.354Z,1.80
2018-12-24T12:29:29.328Z,1.70
2018-12-24T12:30:29.309Z,1.80
2018-12-24T12:31:29.284Z,2.10
2018-12-24T12:32:29.269Z,2.10
2018-12-24T12:33:29.239Z,1.70
2018-12-24T12:34:29.215Z,1.90
2018-12-24T12:35:29.189Z,2.20
2018-12-24T12:36:29.167Z,1.70
2018-12-24T12:37:29.141Z,1.70
2018-12-24T12:38:29.877Z,1.80
2018-12-24T12:39:29.144Z,2.00
2018-12-24T12:40:29.081Z,2.10
2018-12-24T12:41:29.052Z,2.00
2018-12-24T12:42:29.041Z,2.60
2018-12-24T12:43:29.008Z,2.20
2018-12-24T12:44:28.992Z,4.00
2018-12-24T12:45:28.953Z,3.30
2018-12-24T12:46:28.933Z,2.60
2018-12-24T12:47:28.909Z,2.30
2018-12-24T12:48:28.890Z,2.50
2018-12-24T12:49:28.861Z,3.10
2018-12-24T12:50:28.845Z,2.60
2018-12-24T12:51:28.817Z,2.20
2018-12-24T12:52:28.792Z,2.00
2018-12-24T12:53:28.772Z,2.00
2018-12-24T12:54:28.745Z,3.10
2018-12-24T12:55:28.725Z,3.10
2018-12-24T12:56:28.736Z,2.50
2018-12-24T12:57:28.675Z,2.40
2018-12-24T12:58:28.653Z,2.20
2018-12-24T12:59:28.638Z,2.30
2018-12-24T13:00:28.608Z,2.40
2018-12-24T13:01:28.587Z,2.30
2018-12-24T13:02:28.562Z,2.20
2018-12-24T13:03:28.538Z,2.70
2018-12-24T13:04:28.511Z,2.40
2018-12-24T13:05:28.495Z,2.10
2018-12-24T13:06:28.467Z,2.40
2018-12-24T13:07:28.442Z,2.30
2018-12-24T13:08:28.422Z,1.80
2018-12-24T13:09:28.403Z,2.10
2018-12-24T13:10:28.376Z,2.00
2018-12-24T13:11:28.349Z,1.90
2018-12-24T13:12:28.384Z,1.80
2018-12-24T13:13:36.582Z,1.70
2018-12-24T13:14:28.277Z,1.70
2018-12-24T13:15:28.257Z,1.80